createdAt,value
2022-12-20T00:10:21.394Z,100919.44
2022-12-20T00:25:12.603Z,100902.80
2022-12-20T00:40:04.452Z,100901.49
2022-12-20T00:54:55.504Z,100902.78
2022-12-20T01:09:45.881Z,100892.29
2022-12-20T01:24:36.804Z,100891.41
2022-12-20T01:39:26.466Z,100872.64
2022-12-20T01:54:19.640Z,100876.59
2022-12-20T02:09:13.306Z,100870.05
2022-12-20T02:24:22.570Z,100842.52
2022-12-20T02:39:17.452Z,100818.86
2022-12-20T02:54:10.237Z,100821.47
2022-12-20T03:08:59.774Z,100823.23
2022-12-20T03:23:49.282Z,100825.83
2022-12-20T03:38:39.141Z,100793.55
2022-12-20T03:53:29.498Z,100805.38
2022-12-20T04:08:20.638Z,100780.90
2022-12-20T04:23:11.413Z,100766.05
2022-12-20T04:38:01.461Z,100752.91
2022-12-20T04:53:10.012Z,100739.80
2022-12-20T05:08:05.664Z,100750.69
2022-12-20T05:23:14.147Z,100726.16
2022-12-20T05:38:10.042Z,100744.03
2022-12-20T05:53:03.531Z,100748.39
2022-12-20T06:07:51.180Z,100743.13
2022-12-20T06:22:41.601Z,100725.18
2022-12-20T06:37:32.405Z,100719.44
2022-12-20T06:52:26.721Z,100705.83
2022-12-20T07:07:15.559Z,100696.54
2022-12-20T07:22:06.556Z,100690.30
2022-12-20T07:36:57.616Z,100704.17
2022-12-20T07:51:48.938Z,100685.22
2022-12-20T08:06:40.652Z,100665.81
2022-12-20T08:21:31.586Z,100663.94
2022-12-20T08:36:22.472Z,100651.94
2022-12-20T08:51:13.799Z,100638.62
2022-12-20T09:06:09.906Z,100631.36
2022-12-20T09:21:00.854Z,100642.08
2022-12-20T09:35:52.052Z,100651.52
2022-12-20T09:51:07.799Z,100642.58
2022-12-20T10:06:35.935Z,100625.71
2022-12-20T10:21:34.176Z,100618.03
2022-12-20T10:36:33.776Z,100606.16
2022-12-20T10:51:29.749Z,100577.72
2022-12-20T11:06:21.452Z,100558.37
2022-12-20T11:21:27.393Z,100501.95
2022-12-20T11:36:19.078Z,100520.81
2022-12-20T11:51:35.664Z,100495.93
2022-12-20T12:06:44.779Z,100490.92
2022-12-20T12:21:54.592Z,100482.00
2022-12-20T12:37:15.152Z,100421.59
2022-12-20T12:52:12.620Z,100420.02
2022-12-20T13:07:03.420Z,100393.36
2022-12-20T13:22:06.724Z,100373.56
2022-12-20T13:37:02.420Z,100366.04
2022-12-20T13:52:16.761Z,100363.84
2022-12-20T14:07:14.136Z,100356.27
2022-12-20T14:22:04.240Z,100353.31
2022-12-20T14:37:14.005Z,100351.50
2022-12-20T14:52:11.411Z,100329.45
2022-12-20T15:07:05.514Z,100347.59
2022-12-20T15:21:58.770Z,100357.68
2022-12-20T15:36:48.223Z,100340.37
2022-12-20T15:51:38.569Z,100333.00
2022-12-20T16:06:29.258Z,100326.95
2022-12-20T16:21:25.691Z,100320.51
2022-12-20T16:36:20.346Z,100310.59
2022-12-20T16:51:22.798Z,100301.86
2022-12-20T17:06:19.624Z,100290.28
2022-12-20T17:21:19.984Z,100286.55
2022-12-20T17:36:14.938Z,100277.02
2022-12-20T17:51:26.973Z,100268.77
2022-12-20T18:06:25.038Z,100288.45
2022-12-20T18:21:15.127Z,100264.33
2022-12-20T18:36:05.644Z,100253.50
2022-12-20T18:50:56.526Z,100255.97
2022-12-20T19:05:47.639Z,100270.23
2022-12-20T19:20:37.773Z,100277.37
2022-12-20T19:35:54.969Z,100276.50
2022-12-20T19:50:19.859Z,100281.00
2022-12-20T20:05:15.257Z,100310.02
2022-12-20T20:20:02.552Z,100316.85
2022-12-20T20:34:53.540Z,100302.70
2022-12-20T20:49:43.232Z,100299.97
2022-12-20T21:04:33.746Z,100309.35
2022-12-20T21:19:24.325Z,100285.78
2022-12-20T21:34:14.351Z,100254.89
2022-12-20T21:49:05.907Z,100240.53
2022-12-20T22:03:57.715Z,100250.37
2022-12-20T22:18:50.132Z,100257.83
2022-12-20T22:33:40.782Z,100252.52
2022-12-20T22:48:31.655Z,100250.84
2022-12-20T23:03:23.348Z,100244.52
2022-12-20T23:18:14.351Z,100250.58
2022-12-20T23:33:04.808Z,100255.73
2022-12-20T23:47:55.763Z,100232.23
